Bridgeport, CT (06610)

8:39 AM EST on January 31, 2015 (GMT -0500)
Northern Part Of Town | Change Station
CLOSE
Current Station
Personal Weather Station
Location: Stratford, CT
Elevation: 100 ft
Nearby Weather Stations

Elev 100 ft 41.21 °N, 73.15 °W | Updated 11 seconds ago

Clear
Clear
10.8 °F
Feels Like -3 °F
N
11.4
Wind Variable Wind from NW
Gusts 17.4 mph

Today
High -- | Low -- °F
--% Chance of Precip.
Yesterday
High -- | Low -- °F
Precip. -- in
7:04 AM 5:07 PM
Waxing Gibbous, 89% visible
Pressure 30.02 in
Visibility 10.0 miles
Clouds Clear
Windchill -3 °F
Dew Point -20 °F
Humidity 23%
Rainfall 0.30 in
Snow Depth Not available.
UV 0 out of 12
Pollen .10 out of 12
Air Quality Not available.
Flu Activity Not available.
METAR KBDR 311252Z 33023G32KT 10SM CLR M12/M23 A3002 RMK AO2 PK WND 33035/1216 SLP166 T11221233 $

More Conditions Fewer Conditions

Pressure 30.02 in
Visibility 10.0 miles
Clouds Clear
Windchill -3 °F
Dew Point -20 °F
Humidity 23%
Rainfall 0.30 in
Snow Depth Not available.
UV 0 out of 12
Pollen .10 out of 12
Air Quality Not available.
Flu Activity Not available.
METAR KBDR 311252Z 33023G32KT 10SM CLR M12/M23 A3002 RMK AO2 PK WND 33035/1216 SLP166 T11221233 $

More Conditions Fewer Conditions

10-Day Weather Forecast

Almanac

Astronomy

Jan. 31, 2015 Rise Set
Actual Time
Civil Twilight
Nautical Twilight
Astronomical Twilight
Moon
Length of Visible Light
Length of Day
Tomorrow will be .
, % of the Moon is Illuminated

Today's Extremes

State Highs State Lows

Community

WunderPhotos

Upload Photos

1,792,046 photos uploaded!

WunderBlogs® & News

Nearby

Air Quality

  Air Quality AQ Index Pollutant
Not available.

Snow Depth

Station Depth Elevation

Earthquake Activity

City Distance Mag. Time & Date
Minimum magnitude displayed is 2.5.

Coastal Water Temperatures

Place Temperature

Nearby Weather Stations